createdAt,value
2022-08-23T00:02:39.340Z,99992.59
2022-08-23T00:05:44.622Z,99989.94
2022-08-23T00:08:48.869Z,99990.88
2022-08-23T00:12:09.404Z,99987.66
2022-08-23T00:15:15.146Z,99987.47
2022-08-23T00:18:18.403Z,99990.31
2022-08-23T00:21:20.606Z,99983.03
2022-08-23T00:24:24.490Z,99984.19
2022-08-23T00:27:26.961Z,99986.00
2022-08-23T00:30:29.713Z,99982.03
2022-08-23T00:33:31.797Z,99980.06
2022-08-23T00:36:35.377Z,99976.19
2022-08-23T00:39:39.115Z,99979.22
2022-08-23T00:43:09.181Z,99984.03
2022-08-23T00:46:41.576Z,99996.13
2022-08-23T00:49:48.446Z,99995.81
2022-08-23T00:53:12.009Z,100000.25
2022-08-23T00:56:17.170Z,100001.47
2022-08-23T00:59:19.501Z,100003.06
2022-08-23T01:02:22.251Z,100005.12
2022-08-23T01:05:31.224Z,100006.97
2022-08-23T01:08:35.478Z,100010.19
2022-08-23T01:11:47.758Z,100009.75
2022-08-23T01:15:09.065Z,100015.09
2022-08-23T01:18:15.257Z,100019.13
2022-08-23T01:21:45.446Z,100021.00
2022-08-23T01:25:07.023Z,100016.34
2022-08-23T01:28:10.862Z,100017.91
2022-08-23T01:31:13.730Z,100021.66
2022-08-23T01:34:18.282Z,100029.53
2022-08-23T01:37:21.230Z,100033.34
2022-08-23T01:40:24.688Z,100034.84
2022-08-23T01:43:27.437Z,100035.34
2022-08-23T01:46:29.942Z,100035.50
2022-08-23T01:49:33.073Z,100049.12
2022-08-23T01:52:36.957Z,100045.28
2022-08-23T01:55:42.148Z,100045.97
2022-08-23T01:58:44.478Z,100048.41
2022-08-23T02:01:47.561Z,100044.03
2022-08-23T02:04:50.261Z,100042.09
2022-08-23T02:07:52.417Z,100045.59
2022-08-23T02:10:55.692Z,100045.97
2022-08-23T02:14:01.036Z,100047.91
2022-08-23T02:17:05.139Z,100045.81
2022-08-23T02:20:08.817Z,100051.19
2022-08-23T02:23:11.594Z,100051.72
2022-08-23T02:26:13.962Z,100058.66
2022-08-23T02:29:18.866Z,100063.84
2022-08-23T02:32:21.285Z,100063.31
2022-08-23T02:35:24.532Z,100059.81
2022-08-23T02:38:27.120Z,100063.97
2022-08-23T02:41:30.026Z,100062.41
2022-08-23T02:44:34.639Z,100065.06
2022-08-23T02:47:37.029Z,100070.94
2022-08-23T02:50:40.294Z,100069.62
2022-08-23T02:53:42.964Z,100084.16
2022-08-23T02:56:45.522Z,100084.72
2022-08-23T02:59:47.605Z,100085.56
2022-08-23T03:02:49.994Z,100085.84
2022-08-23T03:05:52.977Z,100087.44
2022-08-23T03:08:56.674Z,100087.66
2022-08-23T03:11:58.863Z,100087.00
2022-08-23T03:15:01.302Z,100089.81
2022-08-23T03:18:03.477Z,100093.25
2022-08-23T03:21:07.406Z,100103.22
2022-08-23T03:24:10.474Z,100101.72
2022-08-23T03:27:13.785Z,100099.53
2022-08-23T03:30:19.680Z,100103.88
2022-08-23T03:33:24.429Z,100106.34
2022-08-23T03:36:27.883Z,100105.56
2022-08-23T03:39:31.320Z,100105.00
2022-08-23T03:42:33.819Z,100113.00
2022-08-23T03:45:37.903Z,100110.63
2022-08-23T03:48:41.330Z,100111.81
2022-08-23T03:51:43.857Z,100107.50
2022-08-23T03:54:45.954Z,100111.31
2022-08-23T03:57:49.060Z,100118.41
2022-08-23T04:00:51.567Z,100123.28
2022-08-23T04:03:54.068Z,100118.63
2022-08-23T04:06:56.345Z,100133.31
2022-08-23T04:09:58.887Z,100132.37
2022-08-23T04:13:01.404Z,100138.63
2022-08-23T04:16:04.974Z,100140.66
2022-08-23T04:19:09.726Z,100145.50
2022-08-23T04:22:14.030Z,100145.16
2022-08-23T04:25:33.711Z,100140.66
2022-08-23T04:28:37.861Z,100133.47
2022-08-23T04:31:41.770Z,100120.19
2022-08-23T04:34:45.676Z,100126.13
2022-08-23T04:37:54.029Z,100140.53
2022-08-23T04:41:15.822Z,100136.47
2022-08-23T04:44:18.685Z,100143.66
2022-08-23T04:47:21.412Z,100148.59
2022-08-23T04:50:24.606Z,100152.47
2022-08-23T04:53:29.181Z,100157.28
2022-08-23T04:56:32.213Z,100160.69
2022-08-23T04:59:35.415Z,100154.69
2022-08-23T05:02:38.154Z,100168.31
2022-08-23T05:05:41.850Z,100169.06
2022-08-23T05:08:44.253Z,100172.56
2022-08-23T05:11:46.606Z,100171.47
2022-08-23T05:14:48.943Z,100174.72
2022-08-23T05:17:52.087Z,100180.34
2022-08-23T05:20:54.546Z,100167.94
2022-08-23T05:24:00.342Z,100172.87
2022-08-23T05:27:04.677Z,100171.22
2022-08-23T05:30:08.170Z,100171.06
2022-08-23T05:33:17.319Z,100177.75
2022-08-23T05:36:21.449Z,100183.06
2022-08-23T05:39:32.822Z,100183.28
2022-08-23T05:42:39.260Z,100190.66
2022-08-23T05:45:41.769Z,100192.94
2022-08-23T05:48:50.921Z,100197.78
2022-08-23T05:51:53.257Z,100205.00
2022-08-23T05:54:55.798Z,100210.00
2022-08-23T05:57:58.583Z,100220.66
2022-08-23T06:01:01.938Z,100222.66
2022-08-23T06:04:06.986Z,100214.91
2022-08-23T06:07:11.032Z,100211.53
2022-08-23T06:10:15.955Z,100225.47
2022-08-23T06:13:19.178Z,100226.91
2022-08-23T06:16:26.330Z,100240.09
2022-08-23T06:19:28.586Z,100236.66
2022-08-23T06:22:32.218Z,100239.53
2022-08-23T06:25:38.917Z,100237.97
2022-08-23T06:28:50.207Z,100240.25
2022-08-23T06:31:53.970Z,100251.88
2022-08-23T06:35:27.817Z,100249.66
2022-08-23T06:38:21.629Z,100247.78
2022-08-23T06:41:24.238Z,100248.09
2022-08-23T06:44:27.483Z,100247.37
2022-08-23T06:47:31.578Z,100251.41
2022-08-23T06:50:34.091Z,100256.50
2022-08-23T06:53:40.618Z,100257.34
2022-08-23T06:56:44.468Z,100255.13
2022-08-23T06:59:48.729Z,100261.75
2022-08-23T07:02:51.133Z,100260.44
2022-08-23T07:05:57.695Z,100259.88
2022-08-23T07:09:00.890Z,100263.81
2022-08-23T07:12:03.719Z,100264.31
2022-08-23T07:15:06.613Z,100265.53
2022-08-23T07:18:11.014Z,100267.78
2022-08-23T07:21:16.321Z,100277.37
2022-08-23T07:24:21.594Z,100279.03
2022-08-23T07:27:24.321Z,100273.38
2022-08-23T07:30:27.461Z,100279.06
2022-08-23T07:33:29.662Z,100273.78
2022-08-23T07:36:34.620Z,100269.31
2022-08-23T07:39:37.158Z,100279.66
2022-08-23T07:42:44.066Z,100278.19
2022-08-23T07:45:48.787Z,100280.69
2022-08-23T07:48:54.853Z,100280.41
2022-08-23T07:51:58.797Z,100287.31
2022-08-23T07:55:01.794Z,100290.06
2022-08-23T07:58:04.282Z,100288.94
2022-08-23T08:01:21.970Z,100291.69
2022-08-23T08:04:24.426Z,100288.25
2022-08-23T08:07:27.581Z,100275.84
2022-08-23T08:10:36.743Z,100276.75
2022-08-23T08:13:43.525Z,100281.44
2022-08-23T08:16:48.842Z,100280.22
2022-08-23T08:19:51.794Z,100277.84
2022-08-23T08:23:00.778Z,100284.34
2022-08-23T08:26:08.010Z,100279.66
2022-08-23T08:29:11.976Z,100284.66
2022-08-23T08:32:17.510Z,100290.44
2022-08-23T08:35:20.205Z,100294.72
2022-08-23T08:38:23.113Z,100296.38
2022-08-23T08:42:04.308Z,100308.63
2022-08-23T08:45:12.317Z,100301.69
2022-08-23T08:48:22.147Z,100312.75
2022-08-23T08:51:58.805Z,100317.56
2022-08-23T08:55:24.625Z,100308.59
2022-08-23T08:58:40.102Z,100313.19
2022-08-23T09:01:42.604Z,100314.09
2022-08-23T09:04:48.224Z,100312.84
2022-08-23T09:08:25.014Z,100315.56
2022-08-23T09:12:05.088Z,100323.09
2022-08-23T09:15:28.665Z,100311.72
2022-08-23T09:18:34.194Z,100305.00
2022-08-23T09:21:49.447Z,100307.16
2022-08-23T09:24:51.913Z,100308.41
2022-08-23T09:27:56.075Z,100310.06
2022-08-23T09:30:59.539Z,100311.63
2022-08-23T09:34:02.328Z,100312.41
2022-08-23T09:37:09.837Z,100313.31
2022-08-23T09:40:38.843Z,100317.69
2022-08-23T09:43:47.138Z,100318.16
2022-08-23T09:46:49.876Z,100317.03
2022-08-23T09:49:54.550Z,100314.69
2022-08-23T09:53:14.405Z,100313.97
2022-08-23T09:56:24.400Z,100304.25
2022-08-23T09:59:27.411Z,100305.44
2022-08-23T10:02:35.269Z,100309.09
2022-08-23T10:05:40.371Z,100306.72
2022-08-23T10:08:55.245Z,100310.31
2022-08-23T10:12:01.041Z,100308.59
2022-08-23T10:15:06.773Z,100305.16
2022-08-23T10:18:16.956Z,100305.53
2022-08-23T10:21:25.453Z,100308.31
2022-08-23T10:24:53.021Z,100311.50
2022-08-23T10:28:48.137Z,100309.53
2022-08-23T10:32:16.218Z,100311.84
2022-08-23T10:35:30.549Z,100304.09
2022-08-23T10:38:50.733Z,100309.72
2022-08-23T10:42:02.950Z,100301.47
2022-08-23T10:45:08.508Z,100309.78
2022-08-23T10:48:17.074Z,100307.41
2022-08-23T10:51:31.535Z,100305.91
2022-08-23T10:54:59.374Z,100301.16
2022-08-23T10:58:06.163Z,100304.34
2022-08-23T11:01:12.648Z,100303.19
2022-08-23T11:04:36.589Z,100302.81
2022-08-23T11:07:43.247Z,100304.81
2022-08-23T11:10:52.807Z,100299.72
2022-08-23T11:14:00.944Z,100302.47
2022-08-23T11:17:28.559Z,100298.94
2022-08-23T11:20:49.416Z,100298.09
2022-08-23T11:23:59.574Z,100297.22
2022-08-23T11:27:07.085Z,100301.97
2022-08-23T11:30:32.645Z,100288.59
2022-08-23T11:33:46.821Z,100296.34
2022-08-23T11:37:20.374Z,100297.06
2022-08-23T11:40:55.886Z,100292.69
2022-08-23T11:44:03.280Z,100298.56
2022-08-23T11:47:10.716Z,100287.56
2022-08-23T11:50:29.206Z,100291.87
2022-08-23T11:53:50.777Z,100288.41
2022-08-23T11:57:11.634Z,100282.47
2022-08-23T12:00:41.517Z,100284.06
2022-08-23T12:04:21.662Z,100289.16
2022-08-23T12:07:55.284Z,100294.78
2022-08-23T12:11:01.798Z,100289.38
2022-08-23T12:14:32.679Z,100285.34
2022-08-23T12:17:40.256Z,100295.50
2022-08-23T12:20:48.185Z,100285.31
2022-08-23T12:23:55.609Z,100293.53
2022-08-23T12:27:23.932Z,100297.41
2022-08-23T12:31:07.845Z,100296.91
2022-08-23T12:34:51.601Z,100295.31
2022-08-23T12:38:10.225Z,100297.28
2022-08-23T12:41:17.621Z,100300.00
2022-08-23T12:44:23.994Z,100298.75
2022-08-23T12:47:27.797Z,100298.34
2022-08-23T12:50:37.062Z,100305.84
2022-08-23T12:53:45.628Z,100307.84
2022-08-23T12:56:52.235Z,100307.03
2022-08-23T13:00:17.564Z,100300.44
2022-08-23T13:03:32.832Z,100300.53
2022-08-23T13:06:42.272Z,100296.69
2022-08-23T13:09:53.456Z,100300.34
2022-08-23T13:12:57.574Z,100296.03
2022-08-23T13:16:03.597Z,100296.50
2022-08-23T13:19:38.194Z,100307.12
2022-08-23T13:22:56.058Z,100301.25
2022-08-23T13:26:29.261Z,100305.19
2022-08-23T13:29:32.451Z,100302.81
2022-08-23T13:32:42.326Z,100302.81
2022-08-23T13:35:47.184Z,100302.81
2022-08-23T13:38:51.863Z,100298.81
2022-08-23T13:41:55.583Z,100292.19
2022-08-23T13:44:58.198Z,100287.87
2022-08-23T13:48:06.540Z,100287.87
2022-08-23T13:51:25.850Z,100292.53
2022-08-23T13:54:30.033Z,100291.09
